sensor_id;sensor_type;location;lat;lon;timestamp;pressure;altitude;pressure_sealevel;temperature;humidity
34500;BME280;20745;50.882;6.962;2023-02-12T00:01:25;103179.34;;;8.75;100.00
34500;BME280;20745;50.882;6.962;2023-02-12T00:03:52;103179.34;;;8.75;100.00
34500;BME280;20745;50.882;6.962;2023-02-12T00:06:19;103176.19;;;8.69;100.00
34500;BME280;20745;50.882;6.962;2023-02-12T00:08:49;103177.19;;;8.68;100.00
34500;BME280;20745;50.882;6.962;2023-02-12T00:11:21;103175.47;;;8.67;100.00
34500;BME280;20745;50.882;6.962;2023-02-12T00:13:48;103168.22;;;8.67;100.00
34500;BME280;20745;50.882;6.962;2023-02-12T00:16:18;103171.56;;;8.71;100.00
34500;BME280;20745;50.882;6.962;2023-02-12T00:18:45;103175.00;;;8.73;100.00
34500;BME280;20745;50.882;6.962;2023-02-12T00:21:13;103177.69;;;8.73;100.00
34500;BME280;20745;50.882;6.962;2023-02-12T00:23:40;103174.06;;;8.74;100.00
34500;BME280;20745;50.882;6.962;2023-02-12T00:26:07;103172.19;;;8.74;100.00
34500;BME280;20745;50.882;6.962;2023-02-12T00:28:35;103165.63;;;8.66;100.00
34500;BME280;20745;50.882;6.962;2023-02-12T00:31:25;103166.28;;;8.69;100.00
34500;BME280;20745;50.882;6.962;2023-02-12T00:33:52;103164.81;;;8.65;100.00
34500;BME280;20745;50.882;6.962;2023-02-12T00:36:21;103168.78;;;8.60;100.00
34500;BME280;20745;50.882;6.962;2023-02-12T00:38:52;103170.94;;;8.55;100.00
34500;BME280;20745;50.882;6.962;2023-02-12T00:41:20;103164.34;;;8.59;100.00
34500;BME280;20745;50.882;6.962;2023-02-12T00:43:48;103170.63;;;8.59;100.00
34500;BME280;20745;50.882;6.962;2023-02-12T00:46:14;103170.72;;;8.58;100.00
34500;BME280;20745;50.882;6.962;2023-02-12T00:48:41;103170.72;;;8.58;100.00
34500;BME280;20745;50.882;6.962;2023-02-12T00:51:08;103163.41;;;8.47;100.00
34500;BME280;20745;50.882;6.962;2023-02-12T00:53:35;103161.25;;;8.52;100.00
34500;BME280;20745;50.882;6.962;2023-02-12T00:56:02;103176.31;;;8.55;100.00
34500;BME280;20745;50.882;6.962;2023-02-12T00:58:29;103173.09;;;8.62;100.00
34500;BME280;20745;50.882;6.962;2023-02-12T01:00:56;103169.31;;;8.65;100.00
34500;BME280;20745;50.882;6.962;2023-02-12T01:03:22;103170.06;;;8.67;100.00
34500;BME280;20745;50.882;6.962;2023-02-12T01:05:49;103164.03;;;8.63;100.00
34500;BME280;20745;50.882;6.962;2023-02-12T01:08:16;103178.38;;;8.64;100.00
34500;BME280;20745;50.882;6.962;2023-02-12T01:10:42;103176.41;;;8.66;100.00
34500;BME280;20745;50.882;6.962;2023-02-12T01:13:13;103176.41;;;8.66;100.00
34500;BME280;20745;50.882;6.962;2023-02-12T01:15:40;103174.28;;;8.58;100.00
34500;BME280;20745;50.882;6.962;2023-02-12T01:18:07;103176.31;;;8.55;100.00
34500;BME280;20745;50.882;6.962;2023-02-12T01:20:34;103175.13;;;8.59;100.00
34500;BME280;20745;50.882;6.962;2023-02-12T01:23:00;103174.41;;;8.57;100.00
34500;BME280;20745;50.882;6.962;2023-02-12T01:25:27;103179.03;;;8.55;100.00
34500;BME280;20745;50.882;6.962;2023-02-12T01:27:54;103171.16;;;8.52;100.00
34500;BME280;20745;50.882;6.962;2023-02-12T01:30:20;103167.19;;;8.45;100.00
34500;BME280;20745;50.882;6.962;2023-02-12T01:32:49;103173.44;;;8.45;100.00
34500;BME280;20745;50.882;6.962;2023-02-12T01:35:16;103171.94;;;8.41;100.00
34500;BME280;20745;50.882;6.962;2023-02-12T01:37:42;103159.53;;;8.39;100.00
34500;BME280;20745;50.882;6.962;2023-02-12T01:40:13;103174.28;;;8.46;100.00
34500;BME280;20745;50.882;6.962;2023-02-12T01:42:41;103170.84;;;8.44;100.00
34500;BME280;20745;50.882;6.962;2023-02-12T01:47:41;103164.81;;;8.40;100.00
34500;BME280;20745;50.882;6.962;2023-02-12T01:50:15;103165.25;;;8.47;100.00
34500;BME280;20745;50.882;6.962;2023-02-12T01:52:46;103163.28;;;8.49;100.00
34500;BME280;20745;50.882;6.962;2023-02-12T01:55:14;103161.16;;;8.54;100.00
34500;BME280;20745;50.882;6.962;2023-02-12T01:57:42;103159.41;;;8.53;100.00
34500;BME280;20745;50.882;6.962;2023-02-12T02:00:14;103159.88;;;8.47;100.00
34500;BME280;20745;50.882;6.962;2023-02-12T02:02:44;103169.22;;;8.54;100.00
34500;BME280;20745;50.882;6.962;2023-02-12T02:05:14;103159.28;;;8.54;100.00
34500;BME280;20745;50.882;6.962;2023-02-12T02:07:44;103160.28;;;8.53;100.00
34500;BME280;20745;50.882;6.962;2023-02-12T02:10:11;103155.00;;;8.52;100.00
34500;BME280;20745;50.882;6.962;2023-02-12T02:12:38;103160.94;;;8.57;100.00
34500;BME280;20745;50.882;6.962;2023-02-12T02:15:25;103169.22;;;8.54;100.00
34500;BME280;20745;50.882;6.962;2023-02-12T02:18:22;103168.47;;;8.52;100.00
34500;BME280;20745;50.882;6.962;2023-02-12T02:29:37;103167.19;;;8.45;100.00
34500;BME280;20745;50.882;6.962;2023-02-12T02:32:22;103166.97;;;8.48;100.00
34500;BME280;20745;50.882;6.962;2023-02-12T02:35:12;103161.78;;;8.45;100.00
34500;BME280;20745;50.882;6.962;2023-02-12T02:37:48;103149.53;;;8.41;100.00
34500;BME280;20745;50.882;6.962;2023-02-12T02:43:04;103144.13;;;8.41;100.00
34500;BME280;20745;50.882;6.962;2023-02-12T02:45:37;103152.72;;;8.46;100.00
34500;BME280;20745;50.882;6.962;2023-02-12T02:48:17;103149.72;;;8.50;100.00
34500;BME280;20745;50.882;6.962;2023-02-12T02:50:52;103142.06;;;8.44;100.00
34500;BME280;20745;50.882;6.962;2023-02-12T02:53:29;103151.88;;;8.45;100.00
34500;BME280;20745;50.882;6.962;2023-02-12T02:55:59;103159.88;;;8.47;100.00
34500;BME280;20745;50.882;6.962;2023-02-12T02:58:48;103153.94;;;8.42;100.00
34500;BME280;20745;50.882;6.962;2023-02-12T03:01:31;103148.44;;;8.43;100.00
34500;BME280;20745;50.882;6.962;2023-02-12T03:04:12;103153.72;;;8.45;100.00
34500;BME280;20745;50.882;6.962;2023-02-12T03:06:43;103148.22;;;8.46;100.00
34500;BME280;20745;50.882;6.962;2023-02-12T03:09:19;103152.53;;;8.36;100.00
34500;BME280;20745;50.882;6.962;2023-02-12T03:11:47;103159.22;;;8.31;100.00
34500;BME280;20745;50.882;6.962;2023-02-12T03:14:21;103149.63;;;8.27;100.00
34500;BME280;20745;50.882;6.962;2023-02-12T03:16:57;103149.84;;;8.24;100.00
34500;BME280;20745;50.882;6.962;2023-02-12T03:19:29;103147.34;;;8.21;100.00
34500;BME280;20745;50.882;6.962;2023-02-12T03:24:49;103151.00;;;8.20;100.00
34500;BME280;20745;50.882;6.962;2023-02-12T03:27:20;103152.53;;;8.24;100.00
34500;BME280;20745;50.882;6.962;2023-02-12T03:29:48;103134.63;;;8.23;100.00
34500;BME280;20745;50.882;6.962;2023-02-12T03:32:21;103143.47;;;8.25;100.00
34500;BME280;20745;50.882;6.962;2023-02-12T03:34:54;103143.16;;;8.29;100.00
34500;BME280;20745;50.882;6.962;2023-02-12T03:37:35;103154.56;;;8.33;100.00
34500;BME280;20745;50.882;6.962;2023-02-12T03:40:25;103150.81;;;8.35;100.00
34500;BME280;20745;50.882;6.962;2023-02-12T03:43:30;103142.75;;;8.35;100.00
34500;BME280;20745;50.882;6.962;2023-02-12T03:51:03;103142.94;;;8.45;100.00
34500;BME280;20745;50.882;6.962;2023-02-12T03:53:30;103140.03;;;8.48;100.00
34500;BME280;20745;50.882;6.962;2023-02-12T03:56:36;103136.69;;;8.44;100.00
34500;BME280;20745;50.882;6.962;2023-02-12T03:58:53;103138.53;;;8.44;100.00
34500;BME280;20745;50.882;6.962;2023-02-12T04:01:20;103141.97;;;8.46;100.00
34500;BME280;20745;50.882;6.962;2023-02-12T04:03:47;103137.75;;;8.42;100.00
34500;BME280;20745;50.882;6.962;2023-02-12T04:06:27;103137.25;;;8.37;100.00
34500;BME280;20745;50.882;6.962;2023-02-12T04:08:56;103142.63;;;8.37;100.00
34500;BME280;20745;50.882;6.962;2023-02-12T04:11:49;103148.34;;;8.32;100.00
34500;BME280;20745;50.882;6.962;2023-02-12T04:17:11;103150.94;;;8.34;100.00
34500;BME280;20745;50.882;6.962;2023-02-12T04:19:58;103152.63;;;8.35;100.00
34500;BME280;20745;50.882;6.962;2023-02-12T04:22:42;103155.00;;;8.39;100.00
34500;BME280;20745;50.882;6.962;2023-02-12T04:31:11;103166.41;;;8.30;100.00
34500;BME280;20745;50.882;6.962;2023-02-12T04:36:44;103167.81;;;8.23;100.00
34500;BME280;20745;50.882;6.962;2023-02-12T04:39:16;103165.03;;;8.25;100.00
34500;BME280;20745;50.882;6.962;2023-02-12T04:41:44;103175.38;;;8.31;100.00
34500;BME280;20745;50.882;6.962;2023-02-12T04:44:22;103168.47;;;8.27;100.00
34500;BME280;20745;50.882;6.962;2023-02-12T04:46:50;103172.69;;;8.31;100.00
34500;BME280;20745;50.882;6.962;2023-02-12T04:49:18;103172.56;;;8.32;100.00
34500;BME280;20745;50.882;6.962;2023-02-12T04:51:46;103183.56;;;8.29;100.00
34500;BME280;20745;50.882;6.962;2023-02-12T04:54:14;103177.97;;;8.32;100.00
34500;BME280;20745;50.882;6.962;2023-02-12T04:56:41;103175.59;;;8.28;100.00
34500;BME280;20745;50.882;6.962;2023-02-12T04:59:08;103170.00;;;8.31;100.00
34500;BME280;20745;50.882;6.962;2023-02-12T05:01:36;103173.66;;;8.30;100.00
34500;BME280;20745;50.882;6.962;2023-02-12T05:04:03;103167.72;;;8.25;100.00
34500;BME280;20745;50.882;6.962;2023-02-12T05:06:34;103177.63;;;8.24;100.00
34500;BME280;20745;50.882;6.962;2023-02-12T05:09:00;103173.09;;;8.25;100.00
34500;BME280;20745;50.882;6.962;2023-02-12T05:11:27;103172.13;;;8.26;100.00
34500;BME280;20745;50.882;6.962;2023-02-12T05:13:53;103172.13;;;8.26;100.00
34500;BME280;20745;50.882;6.962;2023-02-12T05:16:20;103170.41;;;8.25;100.00
34500;BME280;20745;50.882;6.962;2023-02-12T05:18:47;103177.97;;;8.32;100.00
34500;BME280;20745;50.882;6.962;2023-02-12T05:21:14;103176.09;;;8.33;100.00
34500;BME280;20745;50.882;6.962;2023-02-12T05:23:41;103171.69;;;8.32;100.00
34500;BME280;20745;50.882;6.962;2023-02-12T05:26:14;103171.91;;;8.29;100.00
34500;BME280;20745;50.882;6.962;2023-02-12T05:28:40;103178.81;;;8.33;100.00
34500;BME280;20745;50.882;6.962;2023-02-12T05:31:10;103177.41;;;8.27;100.00
34500;BME280;20745;50.882;6.962;2023-02-12T05:33:41;103190.34;;;8.22;100.00
34500;BME280;20745;50.882;6.962;2023-02-12T05:36:18;103184.16;;;8.20;100.00
34500;BME280;20745;50.882;6.962;2023-02-12T05:38:45;103190.25;;;8.24;100.00
34500;BME280;20745;50.882;6.962;2023-02-12T05:41:15;103178.34;;;8.14;100.00
34500;BME280;20745;50.882;6.962;2023-02-12T05:43:43;103193.88;;;8.23;100.00
34500;BME280;20745;50.882;6.962;2023-02-12T05:46:11;103188.50;;;8.23;100.00
34500;BME280;20745;50.882;6.962;2023-02-12T05:48:38;103204.22;;;8.29;100.00
34500;BME280;20745;50.882;6.962;2023-02-12T05:51:08;103196.91;;;8.31;100.00
34500;BME280;20745;50.882;6.962;2023-02-12T05:53:36;103194.09;;;8.20;100.00
34500;BME280;20745;50.882;6.962;2023-02-12T05:56:15;103194.50;;;8.14;100.00
34500;BME280;20745;50.882;6.962;2023-02-12T05:58:44;103156.97;;;7.86;100.00
34500;BME280;20745;50.882;6.962;2023-02-12T06:01:20;103194.72;;;8.11;100.00
34500;BME280;20745;50.882;6.962;2023-02-12T06:03:47;103203.41;;;8.02;100.00
34500;BME280;20745;50.882;6.962;2023-02-12T06:06:14;103194.44;;;8.01;100.00
34500;BME280;20745;50.882;6.962;2023-02-12T06:08:40;103198.59;;;8.07;100.00
34500;BME280;20745;50.882;6.962;2023-02-12T06:11:10;103203.41;;;8.14;100.00
34500;BME280;20745;50.882;6.962;2023-02-12T06:13:38;103198.59;;;8.19;100.00
34500;BME280;20745;50.882;6.962;2023-02-12T06:16:04;103200.50;;;8.17;100.00
34500;BME280;20745;50.882;6.962;2023-02-12T06:18:34;103193.72;;;8.12;100.00
34500;BME280;20745;50.882;6.962;2023-02-12T06:21:03;103199.00;;;8.13;100.00
34500;BME280;20745;50.882;6.962;2023-02-12T06:23:29;103199.47;;;8.20;100.00
34500;BME280;20745;50.882;6.962;2023-02-12T06:25:56;103199.25;;;8.23;100.00
34500;BME280;20745;50.882;6.962;2023-02-12T06:28:23;103198.41;;;8.22;100.00
34500;BME280;20745;50.882;6.962;2023-02-12T06:30:50;103193.31;;;8.18;100.00
34500;BME280;20745;50.882;6.962;2023-02-12T06:33:16;103199.47;;;8.20;100.00
34500;BME280;20745;50.882;6.962;2023-02-12T06:35:43;103205.63;;;8.22;100.00
34500;BME280;20745;50.882;6.962;2023-02-12T06:38:09;103197.53;;;8.22;100.00
34500;BME280;20745;50.882;6.962;2023-02-12T06:40:36;103199.25;;;8.23;100.00
34500;BME280;20745;50.882;6.962;2023-02-12T06:43:06;103201.28;;;8.19;100.00
34500;BME280;20745;50.882;6.962;2023-02-12T06:45:33;103200.13;;;8.23;100.00
34500;BME280;20745;50.882;6.962;2023-02-12T06:47:59;103207.13;;;8.26;100.00
34500;BME280;20745;50.882;6.962;2023-02-12T06:50:26;103206.19;;;8.27;100.00
34500;BME280;20745;50.882;6.962;2023-02-12T06:52:52;103215.00;;;8.29;100.00
34500;BME280;20745;50.882;6.962;2023-02-12T06:55:19;103217.16;;;8.24;100.00
34500;BME280;20745;50.882;6.962;2023-02-12T06:57:45;103218.66;;;8.28;100.00
34500;BME280;20745;50.882;6.962;2023-02-12T07:00:12;103225.97;;;8.26;100.00
34500;BME280;20745;50.882;6.962;2023-02-12T07:02:39;103215.63;;;8.20;100.00
34500;BME280;20745;50.882;6.962;2023-02-12T07:05:05;103222.94;;;8.18;100.00
34500;BME280;20745;50.882;6.962;2023-02-12T07:07:32;103224.00;;;8.15;100.00
34500;BME280;20745;50.882;6.962;2023-02-12T07:09:58;103219.25;;;8.19;100.00
34500;BME280;20745;50.882;6.962;2023-02-12T07:12:25;103223.94;;;8.29;100.00
34500;BME280;20745;50.882;6.962;2023-02-12T07:14:51;103220.34;;;8.16;100.00
34500;BME280;20745;50.882;6.962;2023-02-12T07:17:18;103235.63;;;8.16;100.00
34500;BME280;20745;50.882;6.962;2023-02-12T07:19:44;103235.28;;;8.08;100.00
34500;BME280;20745;50.882;6.962;2023-02-12T07:22:11;103235.91;;;8.11;100.00
34500;BME280;20745;50.882;6.962;2023-02-12T07:24:37;103231.78;;;8.20;100.00
34500;BME280;20745;50.882;6.962;2023-02-12T07:27:04;103242.34;;;8.23;100.00
34500;BME280;20745;50.882;6.962;2023-02-12T07:29:31;103235.91;;;8.25;100.00
34500;BME280;20745;50.882;6.962;2023-02-12T07:31:57;103249.78;;;8.32;100.00
34500;BME280;20745;50.882;6.962;2023-02-12T07:34:24;103246.13;;;8.33;100.00
34500;BME280;20745;50.882;6.962;2023-02-12T07:36:50;103244.31;;;8.33;100.00
34500;BME280;20745;50.882;6.962;2023-02-12T07:39:17;103241.28;;;8.38;100.00
34500;BME280;20745;50.882;6.962;2023-02-12T07:41:43;103245.50;;;8.42;100.00
34500;BME280;20745;50.882;6.962;2023-02-12T07:44:11;103246.69;;;8.38;100.00
34500;BME280;20745;50.882;6.962;2023-02-12T07:46:43;103248.28;;;8.40;100.00
34500;BME280;20745;50.882;6.962;2023-02-12T07:49:22;103255.28;;;8.43;100.00
34500;BME280;20745;50.882;6.962;2023-02-12T07:51:58;103255.53;;;8.40;100.00
34500;BME280;20745;50.882;6.962;2023-02-12T07:54:25;103254.75;;;8.38;100.00
34500;BME280;20745;50.882;6.962;2023-02-12T07:56:51;103260.97;;;8.26;100.00
34500;BME280;20745;50.882;6.962;2023-02-12T07:59:18;103259.25;;;8.25;100.00
34500;BME280;20745;50.882;6.962;2023-02-12T08:01:47;103256.38;;;8.28;100.00
34500;BME280;20745;50.882;6.962;2023-02-12T08:04:16;103259.81;;;8.30;100.00
34500;BME280;20745;50.882;6.962;2023-02-12T08:06:45;103263.03;;;8.35;100.00
34500;BME280;20745;50.882;6.962;2023-02-12T08:09:14;103264.75;;;8.36;100.00
34500;BME280;20745;50.882;6.962;2023-02-12T08:11:42;103265.31;;;8.41;100.00
34500;BME280;20745;50.882;6.962;2023-02-12T08:14:11;103267.03;;;8.42;100.00
34500;BME280;20745;50.882;6.962;2023-02-12T08:16:40;103267.59;;;8.47;100.00
34500;BME280;20745;50.882;6.962;2023-02-12T08:19:07;103266.09;;;8.55;100.00
34500;BME280;20745;50.882;6.962;2023-02-12T08:21:45;103269.84;;;8.53;100.00
34500;BME280;20745;50.882;6.962;2023-02-12T08:24:14;103270.81;;;8.52;100.00
34500;BME280;20745;50.882;6.962;2023-02-12T08:26:41;103278.47;;;8.58;100.00
34500;BME280;20745;50.882;6.962;2023-02-12T08:29:11;103273.63;;;8.63;100.00
34500;BME280;20745;50.882;6.962;2023-02-12T08:31:43;103283.03;;;8.70;100.00
34500;BME280;20745;50.882;6.962;2023-02-12T08:36:42;103282.06;;;8.71;100.00
34500;BME280;20745;50.882;6.962;2023-02-12T08:39:09;103287.00;;;8.77;100.00
34500;BME280;20745;50.882;6.962;2023-02-12T08:41:36;103282.06;;;8.71;100.00
34500;BME280;20745;50.882;6.962;2023-02-12T08:44:04;103275.69;;;8.72;100.00
34500;BME280;20745;50.882;6.962;2023-02-12T08:46:33;103295.84;;;8.79;100.00
34500;BME280;20745;50.882;6.962;2023-02-12T08:49:06;103281.16;;;8.83;100.00
34500;BME280;20745;50.882;6.962;2023-02-12T08:51:35;103282.16;;;8.82;100.00
34500;BME280;20745;50.882;6.962;2023-02-12T08:54:04;103275.47;;;8.87;100.00
34500;BME280;20745;50.882;6.962;2023-02-12T08:56:31;103280.31;;;8.95;100.00
34500;BME280;20745;50.882;6.962;2023-02-12T08:58:59;103276.41;;;8.99;100.00
34500;BME280;20745;50.882;6.962;2023-02-12T09:01:30;103290.25;;;9.07;100.00
34500;BME280;20745;50.882;6.962;2023-02-12T09:03:57;103286.34;;;9.11;100.00
34500;BME280;20745;50.882;6.962;2023-02-12T09:06:25;103282.22;;;9.18;100.00
34500;BME280;20745;50.882;6.962;2023-02-12T09:08:53;103280.31;;;9.20;100.00
34500;BME280;20745;50.882;6.962;2023-02-12T09:11:24;103279.94;;;9.24;100.00
34500;BME280;20745;50.882;6.962;2023-02-12T09:14:00;103283.28;;;9.28;100.00
34500;BME280;20745;50.882;6.962;2023-02-12T09:16:29;103277.47;;;9.34;100.00
34500;BME280;20745;50.882;6.962;2023-02-12T09:18:56;103288.22;;;9.46;100.00
34500;BME280;20745;50.882;6.962;2023-02-12T09:21:24;103286.88;;;9.52;100.00
34500;BME280;20745;50.882;6.962;2023-02-12T09:23:51;103286.22;;;9.61;100.00
34500;BME280;20745;50.882;6.962;2023-02-12T09:26:20;103278.03;;;9.62;100.00
34500;BME280;20745;50.882;6.962;2023-02-12T09:28:49;103281.81;;;9.60;100.00
34500;BME280;20745;50.882;6.962;2023-02-12T09:31:29;103288.91;;;9.61;100.00
34500;BME280;20745;50.882;6.962;2023-02-12T09:34:01;103280.16;;;9.70;100.00
34500;BME280;20745;50.882;6.962;2023-02-12T09:36:29;103281.31;;;9.78;100.00
34500;BME280;20745;50.882;6.962;2023-02-12T09:38:56;103282.69;;;9.84;100.00
34500;BME280;20745;50.882;6.962;2023-02-12T09:41:35;103285.28;;;9.85;100.00
34500;BME280;20745;50.882;6.962;2023-02-12T09:47:02;103281.75;;;9.96;100.00
34500;BME280;20745;50.882;6.962;2023-02-12T09:52:28;103289.16;;;10.05;100.00
34500;BME280;20745;50.882;6.962;2023-02-12T09:55:15;103285.19;;;9.98;100.00
34500;BME280;20745;50.882;6.962;2023-02-12T09:58:03;103292.53;;;9.96;100.00
34500;BME280;20745;50.882;6.962;2023-02-12T10:00:36;103282.38;;;9.99;100.00
34500;BME280;20745;50.882;6.962;2023-02-12T10:03:12;103289.09;;;10.07;100.00
34500;BME280;20745;50.882;6.962;2023-02-12T10:06:24;103298.31;;;10.15;100.00
34500;BME280;20745;50.882;6.962;2023-02-12T10:09:38;103293.69;;;10.17;100.00
34500;BME280;20745;50.882;6.962;2023-02-12T10:12:23;103299.56;;;10.22;100.00
34500;BME280;20745;50.882;6.962;2023-02-12T10:17:48;103305.03;;;10.33;100.00
34500;BME280;20745;50.882;6.962;2023-02-12T10:20:51;103304.66;;;10.38;100.00
34500;BME280;20745;50.882;6.962;2023-02-12T10:25:56;103301.16;;;10.48;100.00
34500;BME280;20745;50.882;6.962;2023-02-12T10:28:38;103307.19;;;10.52;100.00
34500;BME280;20745;50.882;6.962;2023-02-12T10:33:50;103301.94;;;10.61;100.00
34500;BME280;20745;50.882;6.962;2023-02-12T10:36:48;103300.59;;;10.67;100.00
34500;BME280;20745;50.882;6.962;2023-02-12T10:39:37;103302.19;;;10.69;100.00
34500;BME280;20745;50.882;6.962;2023-02-12T10:42:15;103295.81;;;10.70;100.00
34500;BME280;20745;50.882;6.962;2023-02-12T10:44:43;103294.56;;;10.63;100.00
34500;BME280;20745;50.882;6.962;2023-02-12T10:47:21;103293.81;;;10.61;100.00
34500;BME280;20745;50.882;6.962;2023-02-12T10:49:54;103288.94;;;10.66;100.00
34500;BME280;20745;50.882;6.962;2023-02-12T10:52:55;103295.06;;;10.79;100.00
34500;BME280;20745;50.882;6.962;2023-02-12T10:57:53;103276.19;;;10.90;100.00
34500;BME280;20745;50.882;6.962;2023-02-12T11:00:30;103286.41;;;10.98;100.00
34500;BME280;20745;50.882;6.962;2023-02-12T11:05:41;103282.56;;;11.00;100.00
34500;BME280;20745;50.882;6.962;2023-02-12T11:08:27;103274.81;;;11.07;100.00
34500;BME280;20745;50.882;6.962;2023-02-12T11:10:54;103279.63;;;11.14;100.00
34500;BME280;20745;50.882;6.962;2023-02-12T11:13:25;103275.91;;;11.15;100.00
34500;BME280;20745;50.882;6.962;2023-02-12T11:15:52;103281.97;;;11.19;100.00
34500;BME280;20745;50.882;6.962;2023-02-12T11:18:24;103276.31;;;11.22;100.00
34500;BME280;20745;50.882;6.962;2023-02-12T11:20:55;103273.25;;;11.26;100.00
34500;BME280;20745;50.882;6.962;2023-02-12T11:23:26;103272.25;;;11.16;100.00
34500;BME280;20745;50.882;6.962;2023-02-12T11:26:04;103274.56;;;10.88;100.00
34500;BME280;20745;50.882;6.962;2023-02-12T11:28:34;103267.81;;;11.04;100.00
34500;BME280;20745;50.882;6.962;2023-02-12T11:31:16;103265.84;;;11.17;100.00
34500;BME280;20745;50.882;6.962;2023-02-12T11:34:05;103262.53;;;10.92;100.00
34500;BME280;20745;50.882;6.962;2023-02-12T11:36:35;103248.63;;;10.85;100.00
34500;BME280;20745;50.882;6.962;2023-02-12T11:39:03;103253.91;;;10.76;100.00
34500;BME280;20745;50.882;6.962;2023-02-12T11:41:35;103261.16;;;10.75;100.00
34500;BME280;20745;50.882;6.962;2023-02-12T11:44:12;103250.09;;;10.89;100.00
34500;BME280;20745;50.882;6.962;2023-02-12T11:46:52;103255.91;;;10.96;100.00
34500;BME280;20745;50.882;6.962;2023-02-12T11:49:30;103250.84;;;10.91;100.00
34500;BME280;20745;50.882;6.962;2023-02-12T11:52:00;103244.31;;;10.94;100.00
34500;BME280;20745;50.882;6.962;2023-02-12T11:54:29;103229.59;;;10.98;100.00
34500;BME280;20745;50.882;6.962;2023-02-12T11:56:58;103241.13;;;11.11;100.00
34500;BME280;20745;50.882;6.962;2023-02-12T12:02:26;103246.19;;;11.04;100.00
34500;BME280;20745;50.882;6.962;2023-02-12T12:05:11;103241.25;;;10.98;100.00
34500;BME280;20745;50.882;6.962;2023-02-12T12:07:44;103234.63;;;10.91;100.00
34500;BME280;20745;50.882;6.962;2023-02-12T12:10:33;103228.97;;;11.05;100.00
34500;BME280;20745;50.882;6.962;2023-02-12T12:13:05;103228.84;;;11.07;100.00
34500;BME280;20745;50.882;6.962;2023-02-12T12:15:38;103223.91;;;11.23;100.00
34500;BME280;20745;50.882;6.962;2023-02-12T12:18:45;103216.88;;;11.31;100.00
34500;BME280;20745;50.882;6.962;2023-02-12T12:24:46;103208.78;;;11.20;100.00
34500;BME280;20745;50.882;6.962;2023-02-12T12:27:57;103201.63;;;11.19;100.00
34500;BME280;20745;50.882;6.962;2023-02-12T12:39:14;103204.44;;;11.62;100.00
34500;BME280;20745;50.882;6.962;2023-02-12T12:45:12;103188.75;;;11.76;100.00
34500;BME280;20745;50.882;6.962;2023-02-12T12:56:21;103175.03;;;11.46;100.00
34500;BME280;20745;50.882;6.962;2023-02-12T12:59:36;103168.59;;;11.58;100.00
34500;BME280;20745;50.882;6.962;2023-02-12T13:05:02;103168.16;;;11.85;100.00
34500;BME280;20745;50.882;6.962;2023-02-12T13:13:12;103145.53;;;11.95;100.00
34500;BME280;20745;50.882;6.962;2023-02-12T13:15:49;103160.47;;;11.90;100.00
34500;BME280;20745;50.882;6.962;2023-02-12T13:22:16;103154.41;;;11.97;100.00
34500;BME280;20745;50.882;6.962;2023-02-12T13:24:35;103148.25;;;11.95;100.00
34500;BME280;20745;50.882;6.962;2023-02-12T13:27:25;103147.06;;;11.88;100.00
34500;BME280;20745;50.882;6.962;2023-02-12T13:29:53;103145.09;;;11.90;100.00
34500;BME280;20745;50.882;6.962;2023-02-12T13:32:27;103145.41;;;11.97;100.00
34500;BME280;20745;50.882;6.962;2023-02-12T13:34:56;103136.44;;;11.96;100.00
34500;BME280;20745;50.882;6.962;2023-02-12T13:37:37;103133.06;;;12.04;100.00
34500;BME280;20745;50.882;6.962;2023-02-12T13:40:13;103136.94;;;12.11;100.00
34500;BME280;20745;50.882;6.962;2023-02-12T13:42:59;103140.41;;;12.13;100.00
34500;BME280;20745;50.882;6.962;2023-02-12T13:45:39;103136.41;;;12.17;100.00
34500;BME280;20745;50.882;6.962;2023-02-12T13:48:33;103104.59;;;11.89;100.00
34500;BME280;20745;50.882;6.962;2023-02-12T13:51:22;103132.41;;;12.11;100.00
34500;BME280;20745;50.882;6.962;2023-02-12T13:56:42;103131.88;;;12.17;100.00
34500;BME280;20745;50.882;6.962;2023-02-12T14:01:59;103123.84;;;12.06;100.00
34500;BME280;20745;50.882;6.962;2023-02-12T14:07:03;103112.25;;;12.04;100.00
34500;BME280;20745;50.882;6.962;2023-02-12T14:09:35;103114.69;;;12.07;100.00
34500;BME280;20745;50.882;6.962;2023-02-12T14:12:15;103113.31;;;11.92;100.00
34500;BME280;20745;50.882;6.962;2023-02-12T14:14:45;103119.72;;;11.91;100.00
34500;BME280;20745;50.882;6.962;2023-02-12T14:19:58;103107.88;;;11.92;100.00
34500;BME280;20745;50.882;6.962;2023-02-12T14:24:57;103120.25;;;11.85;100.00
34500;BME280;20745;50.882;6.962;2023-02-12T14:27:40;103120.50;;;11.82;100.00
34500;BME280;20745;50.882;6.962;2023-02-12T14:37:53;103121.63;;;11.80;100.00
34500;BME280;20745;50.882;6.962;2023-02-12T14:43:00;103124.72;;;11.75;100.00
34500;BME280;20745;50.882;6.962;2023-02-12T14:45:34;103119.78;;;11.80;100.00
34500;BME280;20745;50.882;6.962;2023-02-12T14:48:03;103121.50;;;11.81;100.00
34500;BME280;20745;50.882;6.962;2023-02-12T14:50:37;103105.97;;;11.63;100.00
34500;BME280;20745;50.882;6.962;2023-02-12T14:53:21;103122.56;;;11.69;100.00
34500;BME280;20745;50.882;6.962;2023-02-12T14:55:49;103120.44;;;11.73;100.00
34500;BME280;20745;50.882;6.962;2023-02-12T14:58:19;103119.31;;;11.75;100.00
34500;BME280;20745;50.882;6.962;2023-02-12T15:00:51;103119.19;;;11.77;100.00
34500;BME280;20745;50.882;6.962;2023-02-12T15:03:25;103131.63;;;11.79;100.00
34500;BME280;20745;50.882;6.962;2023-02-12T15:06:01;103117.34;;;11.77;100.00
34500;BME280;20745;50.882;6.962;2023-02-12T15:08:43;103119.06;;;11.78;100.00
34500;BME280;20745;50.882;6.962;2023-02-12T15:22:19;103119.91;;;11.79;100.00
34500;BME280;20745;50.882;6.962;2023-02-12T15:24:47;103112.19;;;11.74;100.00